sensor_id;sensor_type;location;lat;lon;timestamp;pressure;altitude;pressure_sealevel;temperature;humidity
69351;BME280;57106;51.446;-2.606;2023-04-05T00:02:09;102321.86;;;9.99;59.38
69351;BME280;57106;51.446;-2.606;2023-04-05T00:04:34;102322.09;;;10.07;59.42
69351;BME280;57106;51.446;-2.606;2023-04-05T00:07:00;102320.82;;;10.15;59.40
69351;BME280;57106;51.446;-2.606;2023-04-05T00:09:25;102318.83;;;10.21;59.28
69351;BME280;57106;51.446;-2.606;2023-04-05T00:11:50;102314.78;;;10.22;59.05
69351;BME280;57106;51.446;-2.606;2023-04-05T00:14:16;102306.79;;;10.09;59.41
69351;BME280;57106;51.446;-2.606;2023-04-05T00:16:41;102305.07;;;9.92;59.49
69351;BME280;57106;51.446;-2.606;2023-04-05T00:19:07;102304.32;;;9.79;60.07
69351;BME280;57106;51.446;-2.606;2023-04-05T00:21:33;102298.06;;;10.00;59.80
69351;BME280;57106;51.446;-2.606;2023-04-05T00:23:59;102297.57;;;9.98;59.95
69351;BME280;57106;51.446;-2.606;2023-04-05T00:26:25;102295.10;;;10.12;59.22
69351;BME280;57106;51.446;-2.606;2023-04-05T00:28:50;102293.54;;;10.03;59.19
69351;BME280;57106;51.446;-2.606;2023-04-05T00:31:16;102297.26;;;10.02;59.17
69351;BME280;57106;51.446;-2.606;2023-04-05T00:33:41;102297.84;;;9.91;59.19
69351;BME280;57106;51.446;-2.606;2023-04-05T00:36:09;102294.93;;;9.94;58.81
69351;BME280;57106;51.446;-2.606;2023-04-05T00:38:32;102290.82;;;9.87;58.03
69351;BME280;57106;51.446;-2.606;2023-04-05T00:40:57;102290.27;;;9.80;57.98
69351;BME280;57106;51.446;-2.606;2023-04-05T00:43:23;102291.52;;;9.74;58.03
69351;BME280;57106;51.446;-2.606;2023-04-05T00:45:49;102290.80;;;9.78;57.59
69351;BME280;57106;51.446;-2.606;2023-04-05T00:48:14;102288.38;;;9.71;57.24
69351;BME280;57106;51.446;-2.606;2023-04-05T00:50:40;102283.57;;;9.77;57.25
69351;BME280;57106;51.446;-2.606;2023-04-05T00:53:07;102279.02;;;9.80;57.21
69351;BME280;57106;51.446;-2.606;2023-04-05T00:55:32;102275.73;;;9.83;57.15
69351;BME280;57106;51.446;-2.606;2023-04-05T00:57:57;102270.34;;;9.74;57.00
69351;BME280;57106;51.446;-2.606;2023-04-05T01:00:24;102267.77;;;9.76;56.51
69351;BME280;57106;51.446;-2.606;2023-04-05T01:02:51;102265.91;;;9.53;56.28
69351;BME280;57106;51.446;-2.606;2023-04-05T01:05:24;102267.46;;;9.62;55.95
69351;BME280;57106;51.446;-2.606;2023-04-05T01:07:42;102266.89;;;9.58;56.14
69351;BME280;57106;51.446;-2.606;2023-04-05T01:10:09;102264.41;;;9.53;56.31
69351;BME280;57106;51.446;-2.606;2023-04-05T01:12:32;102264.12;;;9.65;56.43
69351;BME280;57106;51.446;-2.606;2023-04-05T01:14:56;102260.67;;;9.64;56.48
69351;BME280;57106;51.446;-2.606;2023-04-05T01:17:22;102257.82;;;9.68;56.30
69351;BME280;57106;51.446;-2.606;2023-04-05T01:19:47;102252.50;;;9.58;56.75
69351;BME280;57106;51.446;-2.606;2023-04-05T01:22:31;102249.18;;;9.49;57.34
69351;BME280;57106;51.446;-2.606;2023-04-05T01:24:50;102246.67;;;9.56;57.54
69351;BME280;57106;51.446;-2.606;2023-04-05T01:27:06;102244.77;;;9.40;58.06
69351;BME280;57106;51.446;-2.606;2023-04-05T01:29:41;102242.52;;;9.44;58.20
69351;BME280;57106;51.446;-2.606;2023-04-05T01:31:59;102243.69;;;9.53;58.26
69351;BME280;57106;51.446;-2.606;2023-04-05T01:34:26;102240.41;;;9.52;58.74
69351;BME280;57106;51.446;-2.606;2023-04-05T01:36:51;102241.68;;;9.58;58.49
69351;BME280;57106;51.446;-2.606;2023-04-05T01:39:16;102237.07;;;9.62;58.64
69351;BME280;57106;51.446;-2.606;2023-04-05T01:41:38;102234.39;;;9.44;59.42
69351;BME280;57106;51.446;-2.606;2023-04-05T01:44:02;102234.80;;;9.45;59.68
69351;BME280;57106;51.446;-2.606;2023-04-05T01:46:28;102233.71;;;9.49;59.74
69351;BME280;57106;51.446;-2.606;2023-04-05T01:48:54;102230.55;;;9.55;59.77
69351;BME280;57106;51.446;-2.606;2023-04-05T01:51:19;102224.71;;;9.48;60.17
69351;BME280;57106;51.446;-2.606;2023-04-05T01:53:45;102226.10;;;9.44;60.46
69351;BME280;57106;51.446;-2.606;2023-04-05T01:56:10;102226.48;;;9.59;60.41
69351;BME280;57106;51.446;-2.606;2023-04-05T01:58:36;102222.87;;;9.48;61.01
69351;BME280;57106;51.446;-2.606;2023-04-05T02:01:02;102222.70;;;9.42;61.19
69351;BME280;57106;51.446;-2.606;2023-04-05T02:03:27;102225.38;;;9.46;61.38
69351;BME280;57106;51.446;-2.606;2023-04-05T02:05:53;102227.97;;;9.50;61.41
69351;BME280;57106;51.446;-2.606;2023-04-05T02:08:19;102222.23;;;9.50;61.63
69351;BME280;57106;51.446;-2.606;2023-04-05T02:10:44;102225.64;;;9.56;61.69
69351;BME280;57106;51.446;-2.606;2023-04-05T02:13:10;102218.54;;;9.49;61.92
69351;BME280;57106;51.446;-2.606;2023-04-05T02:15:36;102217.34;;;9.58;61.46
69351;BME280;57106;51.446;-2.606;2023-04-05T02:18:02;102214.41;;;9.58;61.63
69351;BME280;57106;51.446;-2.606;2023-04-05T02:20:27;102210.89;;;9.51;61.94
69351;BME280;57106;51.446;-2.606;2023-04-05T02:22:55;102210.09;;;9.47;62.09
69351;BME280;57106;51.446;-2.606;2023-04-05T02:25:18;102210.54;;;9.53;62.22
69351;BME280;57106;51.446;-2.606;2023-04-05T02:27:44;102209.96;;;9.55;62.24
69351;BME280;57106;51.446;-2.606;2023-04-05T02:30:10;102208.67;;;9.64;62.31
69351;BME280;57106;51.446;-2.606;2023-04-05T02:32:35;102209.63;;;9.52;62.12
69351;BME280;57106;51.446;-2.606;2023-04-05T02:35:03;102207.04;;;9.45;62.23
69351;BME280;57106;51.446;-2.606;2023-04-05T02:37:28;102205.17;;;9.46;62.51
69351;BME280;57106;51.446;-2.606;2023-04-05T02:39:52;102201.62;;;9.43;62.84
69351;BME280;57106;51.446;-2.606;2023-04-05T02:42:17;102194.93;;;9.53;62.57
69351;BME280;57106;51.446;-2.606;2023-04-05T02:44:45;102193.76;;;9.58;62.59
69351;BME280;57106;51.446;-2.606;2023-04-05T02:47:08;102196.13;;;9.55;62.71
69351;BME280;57106;51.446;-2.606;2023-04-05T02:49:34;102190.24;;;9.61;62.62
69351;BME280;57106;51.446;-2.606;2023-04-05T02:51:59;102190.52;;;9.73;62.27
69351;BME280;57106;51.446;-2.606;2023-04-05T02:54:25;102187.50;;;9.74;62.30
69351;BME280;57106;51.446;-2.606;2023-04-05T02:56:50;102182.71;;;9.66;62.42
69351;BME280;57106;51.446;-2.606;2023-04-05T02:59:16;102178.28;;;9.58;62.32
69351;BME280;57106;51.446;-2.606;2023-04-05T03:01:42;102177.44;;;9.57;62.41
69351;BME280;57106;51.446;-2.606;2023-04-05T03:04:06;102179.54;;;9.62;62.50
69351;BME280;57106;51.446;-2.606;2023-04-05T03:06:32;102178.43;;;9.58;62.71
69351;BME280;57106;51.446;-2.606;2023-04-05T03:08:58;102180.96;;;9.42;62.87
69351;BME280;57106;51.446;-2.606;2023-04-05T03:11:23;102181.27;;;9.65;62.56
69351;BME280;57106;51.446;-2.606;2023-04-05T03:13:49;102173.85;;;9.59;62.83
69351;BME280;57106;51.446;-2.606;2023-04-05T03:16:14;102171.94;;;9.70;62.45
69351;BME280;57106;51.446;-2.606;2023-04-05T03:18:40;102171.46;;;9.66;62.64
69351;BME280;57106;51.446;-2.606;2023-04-05T03:21:05;102167.44;;;9.59;62.72
69351;BME280;57106;51.446;-2.606;2023-04-05T03:23:31;102165.09;;;9.51;63.11
69351;BME280;57106;51.446;-2.606;2023-04-05T03:25:58;102162.55;;;9.44;63.25
69351;BME280;57106;51.446;-2.606;2023-04-05T03:28:26;102158.63;;;9.41;63.51
69351;BME280;57106;51.446;-2.606;2023-04-05T03:30:47;102155.66;;;9.33;63.94
69351;BME280;57106;51.446;-2.606;2023-04-05T03:33:12;102152.52;;;9.42;63.61
69351;BME280;57106;51.446;-2.606;2023-04-05T03:35:38;102150.01;;;9.41;63.82
69351;BME280;57106;51.446;-2.606;2023-04-05T03:38:03;102146.30;;;9.36;63.89
69351;BME280;57106;51.446;-2.606;2023-04-05T03:40:29;102146.64;;;9.45;63.74
69351;BME280;57106;51.446;-2.606;2023-04-05T03:42:54;102144.16;;;9.35;63.95
69351;BME280;57106;51.446;-2.606;2023-04-05T03:45:20;102147.01;;;9.39;64.12
69351;BME280;57106;51.446;-2.606;2023-04-05T03:47:45;102144.23;;;9.38;64.17
69351;BME280;57106;51.446;-2.606;2023-04-05T03:50:11;102144.74;;;9.35;64.25
69351;BME280;57106;51.446;-2.606;2023-04-05T03:52:37;102142.05;;;9.32;64.55
69351;BME280;57106;51.446;-2.606;2023-04-05T03:55:03;102138.03;;;9.38;64.29
69351;BME280;57106;51.446;-2.606;2023-04-05T03:57:29;102138.00;;;9.37;64.28
69351;BME280;57106;51.446;-2.606;2023-04-05T03:59:53;102137.15;;;9.33;64.38
69351;BME280;57106;51.446;-2.606;2023-04-05T04:02:19;102135.32;;;9.25;64.99
69351;BME280;57106;51.446;-2.606;2023-04-05T04:04:44;102133.16;;;9.33;64.97
69351;BME280;57106;51.446;-2.606;2023-04-05T04:07:10;102130.92;;;9.39;64.55
69351;BME280;57106;51.446;-2.606;2023-04-05T04:09:35;102127.03;;;9.31;64.73
69351;BME280;57106;51.446;-2.606;2023-04-05T04:12:00;102127.20;;;9.30;65.11
69351;BME280;57106;51.446;-2.606;2023-04-05T04:14:26;102124.51;;;9.41;64.91
69351;BME280;57106;51.446;-2.606;2023-04-05T04:16:51;102125.46;;;9.46;64.52
69351;BME280;57106;51.446;-2.606;2023-04-05T04:19:17;102123.65;;;9.52;64.42
69351;BME280;57106;51.446;-2.606;2023-04-05T04:21:42;102123.87;;;9.62;64.09
69351;BME280;57106;51.446;-2.606;2023-04-05T04:24:07;102120.47;;;9.54;64.17
69351;BME280;57106;51.446;-2.606;2023-04-05T04:26:33;102118.42;;;9.54;64.36
69351;BME280;57106;51.446;-2.606;2023-04-05T04:28:58;102119.23;;;9.68;63.67
69351;BME280;57106;51.446;-2.606;2023-04-05T04:31:23;102119.16;;;9.67;63.84
69351;BME280;57106;51.446;-2.606;2023-04-05T04:33:49;102119.60;;;9.67;64.01
69351;BME280;57106;51.446;-2.606;2023-04-05T04:36:14;102115.12;;;9.54;64.30
69351;BME280;57106;51.446;-2.606;2023-04-05T04:38:40;102114.09;;;9.59;64.50
69351;BME280;57106;51.446;-2.606;2023-04-05T04:41:05;102113.43;;;9.57;64.63
69351;BME280;57106;51.446;-2.606;2023-04-05T04:43:31;102115.19;;;9.61;64.50
69351;BME280;57106;51.446;-2.606;2023-04-05T04:45:58;102111.83;;;9.50;64.51
69351;BME280;57106;51.446;-2.606;2023-04-05T04:48:21;102112.15;;;9.60;64.51
69351;BME280;57106;51.446;-2.606;2023-04-05T04:50:48;102113.06;;;9.53;64.25
69351;BME280;57106;51.446;-2.606;2023-04-05T04:53:13;102113.05;;;9.57;64.56
69351;BME280;57106;51.446;-2.606;2023-04-05T04:55:38;102110.11;;;9.42;64.70
69351;BME280;57106;51.446;-2.606;2023-04-05T04:58:04;102108.72;;;9.53;64.73
69351;BME280;57106;51.446;-2.606;2023-04-05T05:00:30;102103.65;;;9.57;64.44
69351;BME280;57106;51.446;-2.606;2023-04-05T05:03:00;102100.86;;;9.49;64.83
69351;BME280;57106;51.446;-2.606;2023-04-05T05:05:20;102103.21;;;9.62;64.60
69351;BME280;57106;51.446;-2.606;2023-04-05T05:07:45;102100.20;;;9.57;64.81
69351;BME280;57106;51.446;-2.606;2023-04-05T05:10:12;102099.97;;;9.59;64.69
69351;BME280;57106;51.446;-2.606;2023-04-05T05:12:37;102098.64;;;9.67;64.51
69351;BME280;57106;51.446;-2.606;2023-04-05T05:15:03;102097.27;;;9.71;64.05
69351;BME280;57106;51.446;-2.606;2023-04-05T05:17:28;102096.45;;;9.70;63.92
69351;BME280;57106;51.446;-2.606;2023-04-05T05:19:54;102095.51;;;9.70;64.28
69351;BME280;57106;51.446;-2.606;2023-04-05T05:22:19;102095.94;;;9.76;63.96
69351;BME280;57106;51.446;-2.606;2023-04-05T05:24:45;102097.71;;;9.63;64.47
69351;BME280;57106;51.446;-2.606;2023-04-05T05:27:13;102099.42;;;9.76;64.19
69351;BME280;57106;51.446;-2.606;2023-04-05T05:29:47;102099.93;;;9.74;64.28
69351;BME280;57106;51.446;-2.606;2023-04-05T05:32:02;102099.03;;;9.84;64.34
69351;BME280;57106;51.446;-2.606;2023-04-05T05:34:27;102092.91;;;9.60;64.55
69351;BME280;57106;51.446;-2.606;2023-04-05T05:36:54;102092.98;;;9.60;65.17
69351;BME280;57106;51.446;-2.606;2023-04-05T05:39:18;102095.98;;;9.80;64.89
69351;BME280;57106;51.446;-2.606;2023-04-05T05:41:44;102101.07;;;9.86;64.75
69351;BME280;57106;51.446;-2.606;2023-04-05T05:44:09;102101.13;;;9.80;64.45
69351;BME280;57106;51.446;-2.606;2023-04-05T05:46:35;102102.46;;;9.76;64.84
69351;BME280;57106;51.446;-2.606;2023-04-05T05:49:00;102104.69;;;9.70;64.95
69351;BME280;57106;51.446;-2.606;2023-04-05T05:51:25;102107.63;;;9.88;64.27
69351;BME280;57106;51.446;-2.606;2023-04-05T05:53:50;102108.36;;;9.58;64.64
69351;BME280;57106;51.446;-2.606;2023-04-05T05:56:16;102110.38;;;9.90;63.82
69351;BME280;57106;51.446;-2.606;2023-04-05T05:58:41;102106.58;;;9.85;64.08
69351;BME280;57106;51.446;-2.606;2023-04-05T06:01:11;102107.80;;;9.85;64.08
69351;BME280;57106;51.446;-2.606;2023-04-05T06:03:33;102106.32;;;9.86;64.28
69351;BME280;57106;51.446;-2.606;2023-04-05T06:05:58;102103.28;;;9.90;63.98
69351;BME280;57106;51.446;-2.606;2023-04-05T06:08:28;102105.19;;;9.93;64.01
69351;BME280;57106;51.446;-2.606;2023-04-05T06:10:49;102103.54;;;9.95;64.11
69351;BME280;57106;51.446;-2.606;2023-04-05T06:13:14;102103.58;;;9.97;64.31
69351;BME280;57106;51.446;-2.606;2023-04-05T06:15:43;102104.26;;;10.00;64.39
69351;BME280;57106;51.446;-2.606;2023-04-05T06:18:04;102100.18;;;9.97;64.32
69351;BME280;57106;51.446;-2.606;2023-04-05T06:20:30;102100.97;;;10.01;64.23
69351;BME280;57106;51.446;-2.606;2023-04-05T06:22:55;102096.03;;;9.99;64.06
69351;BME280;57106;51.446;-2.606;2023-04-05T06:25:22;102098.01;;;10.02;63.54
69351;BME280;57106;51.446;-2.606;2023-04-05T06:27:45;102095.98;;;9.97;64.19
69351;BME280;57106;51.446;-2.606;2023-04-05T06:35:03;102088.18;;;10.46;63.43
69351;BME280;57106;51.446;-2.606;2023-04-05T06:37:27;102086.69;;;10.37;63.65
69351;BME280;57106;51.446;-2.606;2023-04-05T06:39:58;102082.60;;;10.42;63.40
69351;BME280;57106;51.446;-2.606;2023-04-05T06:42:18;102083.31;;;10.48;63.57
69351;BME280;57106;51.446;-2.606;2023-04-05T06:44:48;102081.82;;;10.45;63.93
69351;BME280;57106;51.446;-2.606;2023-04-05T06:47:10;102077.05;;;10.45;64.31
69351;BME280;57106;51.446;-2.606;2023-04-05T06:49:35;102079.11;;;10.44;64.17
69351;BME280;57106;51.446;-2.606;2023-04-05T06:52:02;102078.91;;;10.52;63.56
69351;BME280;57106;51.446;-2.606;2023-04-05T06:54:27;102077.00;;;10.55;63.85
69351;BME280;57106;51.446;-2.606;2023-04-05T06:56:52;102078.44;;;10.49;64.57
69351;BME280;57106;51.446;-2.606;2023-04-05T06:59:16;102076.82;;;10.50;64.44
69351;BME280;57106;51.446;-2.606;2023-04-05T07:01:42;102080.20;;;10.53;65.37
69351;BME280;57106;51.446;-2.606;2023-04-05T07:04:14;102077.68;;;10.49;65.35
69351;BME280;57106;51.446;-2.606;2023-04-05T07:06:33;102075.20;;;10.66;64.60
69351;BME280;57106;51.446;-2.606;2023-04-05T07:13:49;102073.36;;;10.70;65.07
69351;BME280;57106;51.446;-2.606;2023-04-05T07:16:14;102079.30;;;10.78;64.48
69351;BME280;57106;51.446;-2.606;2023-04-05T07:18:40;102077.43;;;10.77;64.43
69351;BME280;57106;51.446;-2.606;2023-04-05T07:21:05;102077.16;;;10.86;64.25
69351;BME280;57106;51.446;-2.606;2023-04-05T07:23:31;102071.95;;;10.75;65.19
69351;BME280;57106;51.446;-2.606;2023-04-05T07:25:59;102072.81;;;10.73;65.74
69351;BME280;57106;51.446;-2.606;2023-04-05T07:28:22;102070.44;;;10.81;65.75
69351;BME280;57106;51.446;-2.606;2023-04-05T07:30:47;102072.89;;;10.94;65.56
69351;BME280;57106;51.446;-2.606;2023-04-05T07:33:12;102068.46;;;10.70;65.82
69351;BME280;57106;51.446;-2.606;2023-04-05T07:35:38;102068.59;;;10.92;65.38
69351;BME280;57106;51.446;-2.606;2023-04-05T07:38:03;102066.48;;;10.84;65.81
69351;BME280;57106;51.446;-2.606;2023-04-05T07:40:29;102062.40;;;10.97;65.87
69351;BME280;57106;51.446;-2.606;2023-04-05T07:42:54;102059.99;;;10.92;66.58
69351;BME280;57106;51.446;-2.606;2023-04-05T07:45:19;102058.35;;;10.72;66.93
69351;BME280;57106;51.446;-2.606;2023-04-05T07:47:46;102058.22;;;10.87;66.61
69351;BME280;57106;51.446;-2.606;2023-04-05T07:50:11;102056.16;;;10.79;66.91
69351;BME280;57106;51.446;-2.606;2023-04-05T07:52:37;102054.32;;;10.72;66.77
69351;BME280;57106;51.446;-2.606;2023-04-05T07:55:02;102048.29;;;10.99;66.42
69351;BME280;57106;51.446;-2.606;2023-04-05T07:57:28;102050.43;;;10.93;67.39
69351;BME280;57106;51.446;-2.606;2023-04-05T07:59:53;102049.53;;;10.89;67.62
69351;BME280;57106;51.446;-2.606;2023-04-05T08:02:18;102047.71;;;11.07;67.15
69351;BME280;57106;51.446;-2.606;2023-04-05T08:04:44;102052.42;;;10.86;67.25
69351;BME280;57106;51.446;-2.606;2023-04-05T08:07:09;102047.93;;;10.98;67.93
69351;BME280;57106;51.446;-2.606;2023-04-05T08:09:35;102044.48;;;11.04;67.48
69351;BME280;57106;51.446;-2.606;2023-04-05T08:12:00;102042.24;;;11.05;67.41
69351;BME280;57106;51.446;-2.606;2023-04-05T08:14:25;102041.05;;;10.94;67.77
69351;BME280;57106;51.446;-2.606;2023-04-05T08:16:51;102039.31;;;11.01;68.28
69351;BME280;57106;51.446;-2.606;2023-04-05T08:19:16;102040.09;;;11.15;67.85
69351;BME280;57106;51.446;-2.606;2023-04-05T08:21:42;102038.39;;;11.01;68.36
69351;BME280;57106;51.446;-2.606;2023-04-05T08:24:07;102038.97;;;11.07;68.67
69351;BME280;57106;51.446;-2.606;2023-04-05T08:26:35;102038.97;;;10.96;68.10
69351;BME280;57106;51.446;-2.606;2023-04-05T08:28:59;102041.64;;;11.06;67.87
69351;BME280;57106;51.446;-2.606;2023-04-05T08:31:24;102043.80;;;10.97;68.62
69351;BME280;57106;51.446;-2.606;2023-04-05T08:33:50;102044.65;;;11.00;69.06
69351;BME280;57106;51.446;-2.606;2023-04-05T08:36:16;102049.01;;;11.10;69.49
69351;BME280;57106;51.446;-2.606;2023-04-05T08:38:44;102049.75;;;11.17;67.86
69351;BME280;57106;51.446;-2.606;2023-04-05T08:41:09;102049.94;;;11.01;68.81
69351;BME280;57106;51.446;-2.606;2023-04-05T08:43:40;102051.62;;;11.23;68.84
69351;BME280;57106;51.446;-2.606;2023-04-05T08:45:59;102050.85;;;11.29;68.50
69351;BME280;57106;51.446;-2.606;2023-04-05T08:48:25;102050.09;;;11.16;69.11
69351;BME280;57106;51.446;-2.606;2023-04-05T08:50:49;102051.19;;;11.23;68.62
69351;BME280;57106;51.446;-2.606;2023-04-05T08:53:13;102051.84;;;11.12;68.77
69351;BME280;57106;51.446;-2.606;2023-04-05T08:55:39;102052.64;;;11.20;69.20
69351;BME280;57106;51.446;-2.606;2023-04-05T08:58:10;102052.16;;;11.46;68.53
69351;BME280;57106;51.446;-2.606;2023-04-05T09:00:30;102048.87;;;11.63;68.45
69351;BME280;57106;51.446;-2.606;2023-04-05T09:02:57;102050.13;;;11.60;68.65
69351;BME280;57106;51.446;-2.606;2023-04-05T09:05:21;102049.53;;;11.54;68.16
69351;BME280;57106;51.446;-2.606;2023-04-05T09:07:46;102049.37;;;11.75;68.18
69351;BME280;57106;51.446;-2.606;2023-04-05T09:10:12;102046.66;;;11.62;67.54
69351;BME280;57106;51.446;-2.606;2023-04-05T09:12:37;102048.85;;;11.53;67.48
69351;BME280;57106;51.446;-2.606;2023-04-05T09:15:02;102049.32;;;11.47;68.30
69351;BME280;57106;51.446;-2.606;2023-04-05T09:17:27;102046.74;;;11.46;68.27
69351;BME280;57106;51.446;-2.606;2023-04-05T09:19:53;102049.72;;;11.52;68.79
69351;BME280;57106;51.446;-2.606;2023-04-05T09:22:18;102050.98;;;11.38;68.43
69351;BME280;57106;51.446;-2.606;2023-04-05T09:24:45;102050.76;;;11.36;68.59
69351;BME280;57106;51.446;-2.606;2023-04-05T09:27:11;102054.63;;;11.24;69.02
69351;BME280;57106;51.446;-2.606;2023-04-05T09:29:35;102054.56;;;11.29;68.77
69351;BME280;57106;51.446;-2.606;2023-04-05T09:32:01;102051.11;;;11.39;68.85
69351;BME280;57106;51.446;-2.606;2023-04-05T09:34:25;102051.17;;;11.48;68.67
69351;BME280;57106;51.446;-2.606;2023-04-05T09:36:56;102052.95;;;11.58;68.87
69351;BME280;57106;51.446;-2.606;2023-04-05T09:39:16;102054.27;;;11.54;68.84
69351;BME280;57106;51.446;-2.606;2023-04-05T09:41:42;102050.90;;;11.73;68.52
69351;BME280;57106;51.446;-2.606;2023-04-05T09:44:07;102047.93;;;11.73;68.76
69351;BME280;57106;51.446;-2.606;2023-04-05T09:46:33;102045.67;;;11.81;68.50
69351;BME280;57106;51.446;-2.606;2023-04-05T09:48:57;102038.46;;;11.72;68.78
69351;BME280;57106;51.446;-2.606;2023-04-05T09:51:32;102040.54;;;11.66;68.97
69351;BME280;57106;51.446;-2.606;2023-04-05T09:53:59;102039.47;;;11.33;69.54
69351;BME280;57106;51.446;-2.606;2023-04-05T09:56:14;102042.61;;;11.32;69.60
69351;BME280;57106;51.446;-2.606;2023-04-05T09:58:39;102041.30;;;11.47;69.40
69351;BME280;57106;51.446;-2.606;2023-04-05T10:01:05;102042.18;;;11.47;69.61
69351;BME280;57106;51.446;-2.606;2023-04-05T10:03:30;102040.66;;;11.42;70.49
69351;BME280;57106;51.446;-2.606;2023-04-05T10:05:55;102037.52;;;11.58;70.22
69351;BME280;57106;51.446;-2.606;2023-04-05T10:08:21;102032.81;;;11.64;69.88
69351;BME280;57106;51.446;-2.606;2023-04-05T10:10:47;102030.84;;;11.94;69.26
69351;BME280;57106;51.446;-2.606;2023-04-05T10:13:12;102027.91;;;12.01;68.64
69351;BME280;57106;51.446;-2.606;2023-04-05T10:15:38;102027.46;;;11.88;69.01
69351;BME280;57106;51.446;-2.606;2023-04-05T10:18:06;102025.11;;;11.96;67.60
69351;BME280;57106;51.446;-2.606;2023-04-05T10:20:30;102023.47;;;11.86;68.14
69351;BME280;57106;51.446;-2.606;2023-04-05T10:22:59;102023.83;;;12.18;68.64
69351;BME280;57106;51.446;-2.606;2023-04-05T10:25:24;102025.78;;;12.27;68.24
69351;BME280;57106;51.446;-2.606;2023-04-05T10:27:47;102026.66;;;12.35;66.47
69351;BME280;57106;51.446;-2.606;2023-04-05T10:30:12;102026.32;;;12.35;67.19
69351;BME280;57106;51.446;-2.606;2023-04-05T10:32:43;102022.55;;;12.43;66.81
69351;BME280;57106;51.446;-2.606;2023-04-05T10:35:06;102021.01;;;12.51;66.81
69351;BME280;57106;51.446;-2.606;2023-04-05T10:37:35;102020.80;;;12.41;67.31
69351;BME280;57106;51.446;-2.606;2023-04-05T10:39:51;102019.45;;;12.34;68.28
69351;BME280;57106;51.446;-2.606;2023-04-05T10:42:19;102021.37;;;12.54;67.28
69351;BME280;57106;51.446;-2.606;2023-04-05T10:44:42;102018.46;;;12.30;67.07
69351;BME280;57106;51.446;-2.606;2023-04-05T10:47:08;102019.55;;;12.07;67.58
69351;BME280;57106;51.446;-2.606;2023-04-05T10:49:36;102014.35;;;12.33;67.43
69351;BME280;57106;51.446;-2.606;2023-04-05T10:51:58;102014.14;;;12.53;67.44
69351;BME280;57106;51.446;-2.606;2023-04-05T10:54:23;102011.91;;;12.42;66.67
69351;BME280;57106;51.446;-2.606;2023-04-05T10:56:49;102013.58;;;12.57;67.19
69351;BME280;57106;51.446;-2.606;2023-04-05T10:59:15;102014.17;;;12.42;67.60
69351;BME280;57106;51.446;-2.606;2023-04-05T11:01:40;102013.73;;;12.58;67.49
69351;BME280;57106;51.446;-2.606;2023-04-05T11:04:10;102011.36;;;12.53;67.18
69351;BME280;57106;51.446;-2.606;2023-04-05T11:06:32;102007.48;;;12.65;67.97
69351;BME280;57106;51.446;-2.606;2023-04-05T11:08:58;102003.04;;;12.88;68.09
69351;BME280;57106;51.446;-2.606;2023-04-05T11:11:23;102000.48;;;12.89;67.97
69351;BME280;57106;51.446;-2.606;2023-04-05T11:13:50;102000.64;;;12.78;67.50
69351;BME280;57106;51.446;-2.606;2023-04-05T11:16:13;102002.85;;;12.73;66.91
69351;BME280;57106;51.446;-2.606;2023-04-05T11:18:43;102000.44;;;12.08;67.65
69351;BME280;57106;51.446;-2.606;2023-04-05T11:21:06;102003.75;;;12.25;67.49
69351;BME280;57106;51.446;-2.606;2023-04-05T11:23:28;102003.36;;;12.45;67.50
69351;BME280;57106;51.446;-2.606;2023-04-05T11:26:04;101997.26;;;12.31;67.69
69351;BME280;57106;51.446;-2.606;2023-04-05T11:28:27;101998.12;;;12.27;68.50
69351;BME280;57106;51.446;-2.606;2023-04-05T11:30:46;101994.05;;;12.32;68.36
69351;BME280;57106;51.446;-2.606;2023-04-05T11:35:38;101989.11;;;12.33;67.76
69351;BME280;57106;51.446;-2.606;2023-04-05T11:38:05;101987.26;;;12.39;68.18
69351;BME280;57106;51.446;-2.606;2023-04-05T11:40:27;101986.57;;;12.43;67.51
69351;BME280;57106;51.446;-2.606;2023-04-05T11:42:58;101981.35;;;12.27;67.56
69351;BME280;57106;51.446;-2.606;2023-04-05T11:45:18;101980.94;;;12.32;67.93
69351;BME280;57106;51.446;-2.606;2023-04-05T11:47:41;101976.78;;;12.31;67.60
69351;BME280;57106;51.446;-2.606;2023-04-05T11:50:08;101975.05;;;12.39;67.21
69351;BME280;57106;51.446;-2.606;2023-04-05T11:52:32;101975.89;;;12.29;67.31
69351;BME280;57106;51.446;-2.606;2023-04-05T11:54:58;101971.68;;;12.14;67.54
69351;BME280;57106;51.446;-2.606;2023-04-05T11:57:24;101970.04;;;12.06;68.47
69351;BME280;57106;51.446;-2.606;2023-04-05T11:59:53;101971.91;;;12.22;68.50
69351;BME280;57106;51.446;-2.606;2023-04-05T12:02:15;101966.62;;;12.17;68.56
69351;BME280;57106;51.446;-2.606;2023-04-05T12:04:40;101963.01;;;12.17;67.83
69351;BME280;57106;51.446;-2.606;2023-04-05T12:07:09;101960.97;;;12.30;67.18
69351;BME280;57106;51.446;-2.606;2023-04-05T12:09:31;101958.63;;;12.26;67.65
69351;BME280;57106;51.446;-2.606;2023-04-05T12:11:57;101960.39;;;12.44;67.76
69351;BME280;57106;51.446;-2.606;2023-04-05T12:14:22;101957.16;;;12.33;67.57
69351;BME280;57106;51.446;-2.606;2023-04-05T12:16:48;101957.56;;;12.43;68.19
69351;BME280;57106;51.446;-2.606;2023-04-05T12:19:15;101951.29;;;12.12;68.76
69351;BME280;57106;51.446;-2.606;2023-04-05T12:21:38;101950.21;;;12.13;69.10
69351;BME280;57106;51.446;-2.606;2023-04-05T12:24:04;101950.42;;;12.08;69.62
69351;BME280;57106;51.446;-2.606;2023-04-05T12:26:29;101948.20;;;12.02;68.66
69351;BME280;57106;51.446;-2.606;2023-04-05T12:28:57;101950.30;;;11.91;69.55
69351;BME280;57106;51.446;-2.606;2023-04-05T12:31:34;101943.17;;;11.81;70.24
69351;BME280;57106;51.446;-2.606;2023-04-05T12:33:46;101941.56;;;11.94;69.51
69351;BME280;57106;51.446;-2.606;2023-04-05T12:36:13;101938.41;;;11.97;69.89
69351;BME280;57106;51.446;-2.606;2023-04-05T12:38:37;101942.05;;;12.29;69.89
69351;BME280;57106;51.446;-2.606;2023-04-05T12:41:03;101936.25;;;12.65;69.33
69351;BME280;57106;51.446;-2.606;2023-04-05T12:43:37;101932.43;;;12.91;69.12
69351;BME280;57106;51.446;-2.606;2023-04-05T12:45:54;101930.23;;;12.98;67.84
69351;BME280;57106;51.446;-2.606;2023-04-05T12:48:21;101932.61;;;13.05;66.87